• Join FlightAware (Why Join?)
  • Login
  • US Flag 
01:59AM EDT


 

Airport Tracker/Info


-or-


 

Live Flight TrackerFlight Track Log ✈ N814ND ✈ 25-Jan-2014 ✈ KOQU - KOWD

Flight Track Log - Related Links

Times and Time Zones

All times are in EST time to prevent confusion due to time zone crossing. See the N814ND flight status page for this flight to view local times or setup timezone preferences in your user account.

Time Position Orientation Groundspeed Altitude Reporting Facility
EST Latitude Longitude Course Direction KTS MPH feet Rate Location/Type
12:21PM 41.5811 -71.3944 111° Southeast 127 146 1,500  Level Boston Center
12:22PM 41.6039 -71.3747 33° Northeast 139 160 2,000 240 Climbing Boston Center
12:22PM 41.6144 -71.3692 21° North 145 167 1,800 -120 Descending Boston Center
12:23PM 41.6428 -71.3719 356° North 140 161 1,900 60 Climbing Boston Center
12:23PM 41.6544 -71.3750 349° North 141 162 1,900 60 Level Boston Center
12:24PM 41.6822 -71.3589 23° Northeast 159 183 2,000  Climbing Boston Center
12:24PM 41.6922 -71.3486 38° Northeast 166 191 1,900 -120 Descending Boston Center
12:25PM 41.7286 -71.3183 32° Northeast 163 188 1,900  Level Boston Center
12:26PM 41.7631 -71.2906 31° Northeast 165 190 2,000  Climbing Boston Center
12:26PM 41.7731 -71.2797 39° Northeast 167 192 1,900  Descending Boston Center
12:27PM 41.8017 -71.2572 30° Northeast 166 191 2,000  Climbing Boston Center
12:27PM 41.8139 -71.2486 28° Northeast 168 193 1,900  Descending Boston Center
12:28PM 41.8417 -71.2250 32° Northeast 166 191 2,000 -120 Climbing Boston Center
12:28PM 41.8528 -71.2164 30° Northeast 168 193 1,800  Descending Boston Center
12:29PM 41.8847 -71.2153 North 165 190 2,000 60 Climbing Boston Center
12:29PM 41.9000 -71.2189 350° North 146 168 1,900 -60 Descending Boston Center
12:32PM 42.0000 -71.1500 27° Northeast 157 181 1,900  Level KA90
12:33PM 42.0167 -71.1000 66° East 168 193 1,900  Level KA90
12:34PM 42.0667 -71.0833 14° North 145 167 2,000 -180 Climbing KA90
12:35PM 42.1000 -71.1167 323° Northwest 138 159 1,600 -360 Descending KA90
12:36PM 42.1333 -71.1333 340° North 119 137 1,300 -360 Descending KA90
12:37PM 42.1667 -71.1500 340° North 117 135 900 -420 Descending KA90